createdAt,value
2022-12-28T00:00:23.520Z,101572.00
2022-12-28T00:06:26.547Z,101573.00
2022-12-28T00:12:29.654Z,101586.00
2022-12-28T00:18:34.819Z,101587.00
2022-12-28T00:24:37.028Z,101608.00
2022-12-28T00:30:39.241Z,101602.00
2022-12-28T00:37:08.386Z,101605.00
2022-12-28T00:43:05.080Z,101630.00
2022-12-28T00:49:07.381Z,101619.00
2022-12-28T00:55:09.695Z,101628.00
2022-12-28T01:01:20.434Z,101616.00
2022-12-28T01:07:22.641Z,101640.00
2022-12-28T01:13:24.700Z,101655.00
2022-12-28T01:19:26.899Z,101643.00
2022-12-28T01:25:29.292Z,101651.00
2022-12-28T01:31:31.613Z,101639.00
2022-12-28T01:37:34.002Z,101647.00
2022-12-28T01:43:44.143Z,101642.00
2022-12-28T01:49:55.969Z,101649.00
2022-12-28T01:55:58.122Z,101656.00
2022-12-28T02:02:00.589Z,101651.00
2022-12-28T02:08:27.113Z,101657.00
2022-12-28T02:14:29.814Z,101678.00
2022-12-28T02:20:47.438Z,101682.00
2022-12-28T02:27:08.544Z,101679.00
2022-12-28T02:33:29.619Z,101666.00
2022-12-28T02:39:42.220Z,101667.00
2022-12-28T02:46:05.283Z,101685.00
2022-12-28T02:52:45.006Z,101688.00
2022-12-28T02:59:15.784Z,101707.00
2022-12-28T03:06:05.719Z,101696.00
2022-12-28T03:12:33.047Z,101704.00
2022-12-28T03:18:58.504Z,101706.00
2022-12-28T03:25:25.971Z,101706.00
2022-12-28T03:31:29.484Z,101716.00
2022-12-28T03:37:59.955Z,101724.00
2022-12-28T03:44:10.815Z,101719.00
2022-12-28T03:50:13.536Z,101732.00
2022-12-28T03:56:19.816Z,101737.00
2022-12-28T04:02:23.298Z,101734.00
2022-12-28T04:08:25.995Z,101742.00
2022-12-28T04:14:29.023Z,101745.00
2022-12-28T04:20:31.400Z,101763.00
2022-12-28T04:26:33.910Z,101762.00
2022-12-28T04:32:36.260Z,101767.00
2022-12-28T04:38:40.078Z,101782.00
2022-12-28T04:44:42.442Z,101777.00
2022-12-28T04:50:44.632Z,101783.00
2022-12-28T04:56:46.771Z,101780.00
2022-12-28T05:02:48.945Z,101788.00
2022-12-28T05:08:51.756Z,101779.00
2022-12-28T05:14:54.028Z,101799.00
2022-12-28T05:21:10.195Z,101798.00
2022-12-28T05:27:12.347Z,101801.00
2022-12-28T05:33:14.498Z,101805.00
2022-12-28T05:39:16.830Z,101801.00
2022-12-28T05:45:19.251Z,101813.00
2022-12-28T05:51:24.427Z,101820.00
2022-12-28T05:57:26.542Z,101824.00
2022-12-28T06:03:28.737Z,101833.00
2022-12-28T06:09:30.837Z,101842.00
2022-12-28T06:15:33.060Z,101843.00
2022-12-28T06:21:37.823Z,101840.00
2022-12-28T06:27:43.064Z,101849.00
2022-12-28T06:33:45.912Z,101847.00
2022-12-28T06:39:48.171Z,101845.00
2022-12-28T06:45:57.281Z,101847.00
2022-12-28T06:51:59.450Z,101870.00
2022-12-28T06:58:01.491Z,101882.00
2022-12-28T07:04:06.605Z,101882.00
2022-12-28T07:10:08.922Z,101897.00
2022-12-28T07:16:21.593Z,101895.00
2022-12-28T07:22:23.953Z,101886.00
2022-12-28T07:28:26.048Z,101878.00
2022-12-28T07:34:28.237Z,101900.00
2022-12-28T07:40:30.447Z,101894.00
2022-12-28T07:46:34.605Z,101883.00
2022-12-28T07:52:37.628Z,101884.00
2022-12-28T08:04:43.419Z,101884.00
2022-12-28T08:10:47.151Z,101880.00
2022-12-28T08:16:49.436Z,101899.00
2022-12-28T08:22:51.559Z,101909.00
2022-12-28T08:28:56.215Z,101907.00
2022-12-28T08:34:58.469Z,101923.00
2022-12-28T08:41:02.804Z,101921.00
2022-12-28T08:47:05.239Z,101918.00
2022-12-28T08:53:07.550Z,101927.00
2022-12-28T08:59:11.288Z,101915.00
2022-12-28T09:05:13.644Z,101909.00
2022-12-28T09:11:16.018Z,101900.00
2022-12-28T09:17:18.155Z,101895.00
2022-12-28T09:23:20.424Z,101890.00
2022-12-28T09:29:22.500Z,101891.00
2022-12-28T09:35:24.685Z,101887.00
2022-12-28T09:41:51.787Z,101893.00
2022-12-28T09:48:00.346Z,101883.00
2022-12-28T09:54:04.471Z,101861.00
2022-12-28T10:00:17.474Z,101872.00
2022-12-28T10:06:26.487Z,101848.00
2022-12-28T10:12:30.170Z,101847.00
2022-12-28T10:18:39.250Z,101843.00
2022-12-28T10:24:42.404Z,101841.00
2022-12-28T10:30:47.217Z,101832.00
2022-12-28T10:36:50.740Z,101829.00
2022-12-28T10:42:57.844Z,101820.00
2022-12-28T10:49:02.824Z,101818.00
2022-12-28T10:55:28.792Z,101819.00
2022-12-28T11:01:31.122Z,101818.00
2022-12-28T11:07:41.442Z,101802.00
2022-12-28T11:13:47.198Z,101810.00
2022-12-28T11:19:52.124Z,101804.00
2022-12-28T11:25:54.240Z,101804.00
2022-12-28T11:32:09.065Z,101788.00
2022-12-28T11:38:31.847Z,101777.00
2022-12-28T11:44:40.012Z,101780.00
2022-12-28T11:50:50.456Z,101778.00
2022-12-28T11:56:52.607Z,101682.00
2022-12-28T12:02:57.349Z,101776.00
2022-12-28T12:08:59.561Z,101771.00
2022-12-28T12:15:10.973Z,101778.00
2022-12-28T12:21:22.614Z,101778.00
2022-12-28T12:27:36.916Z,101763.00
2022-12-28T12:33:44.718Z,101757.00
2022-12-28T12:39:59.310Z,101755.00
2022-12-28T12:46:41.306Z,101756.00
2022-12-28T12:53:20.893Z,101746.00
2022-12-28T12:59:51.166Z,101736.00
2022-12-28T13:05:55.881Z,101759.00
2022-12-28T13:11:59.205Z,101745.00
2022-12-28T13:18:42.966Z,101745.00
2022-12-28T13:24:35.001Z,101744.00
2022-12-28T13:30:38.647Z,101733.00
2022-12-28T13:36:56.714Z,101728.00
2022-12-28T13:43:18.135Z,101715.00
2022-12-28T13:49:22.226Z,101721.00
2022-12-28T13:55:29.689Z,101736.00
2022-12-28T14:01:36.718Z,101733.00
2022-12-28T14:07:38.947Z,101721.00
2022-12-28T14:13:41.273Z,101727.00
2022-12-28T14:19:43.746Z,101729.00
2022-12-28T14:25:45.901Z,101723.00
2022-12-28T14:31:47.999Z,101719.00
2022-12-28T14:37:56.638Z,101721.00
2022-12-28T14:44:01.218Z,101737.00
2022-12-28T14:50:24.932Z,101740.00
2022-12-28T14:56:34.345Z,101737.00
2022-12-28T15:02:39.122Z,101734.00
2022-12-28T15:08:41.149Z,101732.00
2022-12-28T15:14:43.963Z,101737.00
2022-12-28T15:20:46.208Z,101732.00
2022-12-28T15:26:48.342Z,101732.00
2022-12-28T15:32:50.493Z,101730.00
2022-12-28T15:38:55.436Z,101730.00
2022-12-28T15:44:57.623Z,101732.00
2022-12-28T15:51:00.046Z,101722.00
2022-12-28T15:57:02.287Z,101733.00
2022-12-28T16:03:04.576Z,101730.00
2022-12-28T16:09:07.103Z,101732.00
2022-12-28T16:15:09.541Z,101734.00
2022-12-28T16:21:12.286Z,101735.00
2022-12-28T16:27:14.660Z,101724.00
2022-12-28T16:33:16.868Z,101708.00
2022-12-28T16:39:19.099Z,101720.00
2022-12-28T16:45:21.147Z,101735.00
2022-12-28T16:51:23.447Z,101721.00
2022-12-28T16:57:25.596Z,101713.00
2022-12-28T17:03:27.895Z,101722.00
2022-12-28T17:09:30.123Z,101733.00
2022-12-28T17:15:32.176Z,101725.00
2022-12-28T17:21:35.416Z,101730.00
2022-12-28T17:27:37.509Z,101725.00
2022-12-28T17:33:40.449Z,101719.00
2022-12-28T17:39:42.519Z,101724.00
2022-12-28T17:45:44.696Z,101723.00
2022-12-28T17:51:46.976Z,101714.00
2022-12-28T17:57:49.083Z,101713.00
2022-12-28T18:03:51.484Z,101711.00
2022-12-28T18:09:53.625Z,101709.00
2022-12-28T18:15:56.127Z,101711.00
2022-12-28T18:21:58.383Z,101705.00
2022-12-28T18:28:00.403Z,101698.00
2022-12-28T18:34:02.792Z,101686.00
2022-12-28T18:40:05.396Z,101700.00
2022-12-28T18:46:07.890Z,101696.00
2022-12-28T18:52:10.330Z,101696.00
2022-12-28T18:58:12.615Z,101696.00
2022-12-28T19:04:15.135Z,101699.00
2022-12-28T19:10:17.825Z,101691.00
2022-12-28T19:16:28.563Z,101699.00
2022-12-28T19:22:32.872Z,101696.00
2022-12-28T19:28:35.188Z,101687.00
2022-12-28T19:34:37.360Z,101684.00
2022-12-28T19:40:39.573Z,101680.00
2022-12-28T19:46:42.047Z,101660.00
2022-12-28T19:52:44.244Z,101688.00
2022-12-28T19:58:47.556Z,101689.00
2022-12-28T20:04:49.775Z,101687.00
2022-12-28T20:10:58.061Z,101678.00
2022-12-28T20:17:00.489Z,101688.00
2022-12-28T20:23:02.575Z,101700.00
2022-12-28T20:29:05.515Z,101692.00
2022-12-28T20:35:07.681Z,101678.00
2022-12-28T20:41:32.078Z,101677.00
2022-12-28T20:47:34.232Z,101673.00
2022-12-28T20:53:36.340Z,101677.00
2022-12-28T20:59:38.528Z,101681.00
2022-12-28T21:05:40.527Z,101672.00
2022-12-28T21:11:42.737Z,101668.00
2022-12-28T21:17:44.778Z,101676.00
2022-12-28T21:23:46.985Z,101681.00
2022-12-28T21:29:49.165Z,101664.00
2022-12-28T21:36:20.595Z,101673.00
2022-12-28T21:42:22.614Z,101669.00
2022-12-28T21:48:36.435Z,101652.00
2022-12-28T21:54:38.759Z,101653.00
2022-12-28T22:00:59.850Z,101644.00
2022-12-28T22:07:03.032Z,101642.00
2022-12-28T22:13:05.108Z,101648.00
2022-12-28T22:19:07.308Z,101633.00
2022-12-28T22:25:11.321Z,101615.00
2022-12-28T22:31:13.585Z,101608.00
2022-12-28T22:37:16.243Z,101612.00
2022-12-28T22:43:18.410Z,101608.00
2022-12-28T22:49:20.550Z,101607.00
2022-12-28T22:55:22.618Z,101605.00
2022-12-28T23:01:25.113Z,101605.00
2022-12-28T23:07:27.431Z,101586.00
2022-12-28T23:13:32.408Z,101589.00
2022-12-28T23:19:53.794Z,101589.00
2022-12-28T23:26:14.775Z,101594.00
2022-12-28T23:32:16.777Z,101585.00
2022-12-28T23:38:18.823Z,101579.00
2022-12-28T23:44:24.030Z,101589.00
2022-12-28T23:50:26.149Z,101590.00
2022-12-28T23:56:28.407Z,101592.00
